createdAt,value
2023-02-24T00:02:15.305Z,17.30
2023-02-24T00:04:44.210Z,17.30
2023-02-24T00:07:14.313Z,17.30
2023-02-24T00:09:44.674Z,17.30
2023-02-24T00:12:17.049Z,17.30
2023-02-24T00:14:47.022Z,17.30
2023-02-24T00:17:15.897Z,17.30
2023-02-24T00:19:46.518Z,17.30
2023-02-24T00:22:16.685Z,17.30
2023-02-24T00:24:46.464Z,17.30
2023-02-24T00:27:15.447Z,17.30
2023-02-24T00:29:47.800Z,17.30
2023-02-24T00:32:17.185Z,17.30
2023-02-24T00:34:46.469Z,17.30
2023-02-24T00:37:16.550Z,17.20
2023-02-24T00:39:46.770Z,17.30
2023-02-24T00:42:15.579Z,17.30
2023-02-24T00:44:47.925Z,17.20
2023-02-24T00:47:18.703Z,17.20
2023-02-24T00:49:48.458Z,17.30
2023-02-24T00:52:21.458Z,17.30
2023-02-24T00:54:51.367Z,17.30
2023-02-24T00:57:21.593Z,17.30
2023-02-24T00:59:52.998Z,17.20
2023-02-24T01:02:21.767Z,17.20
2023-02-24T01:04:51.155Z,17.20
2023-02-24T01:07:21.936Z,17.20
2023-02-24T01:09:52.372Z,17.20
2023-02-24T01:12:38.798Z,17.20
2023-02-24T01:15:11.250Z,17.20
2023-02-24T01:17:41.426Z,17.20
2023-02-24T01:20:18.050Z,17.20
2023-02-24T01:22:50.697Z,17.10
2023-02-24T01:25:20.716Z,17.10
2023-02-24T01:27:49.874Z,17.20
2023-02-24T01:30:18.829Z,17.10
2023-02-24T01:32:48.686Z,17.10
2023-02-24T01:35:18.097Z,17.10
2023-02-24T01:37:48.150Z,17.10
2023-02-24T01:40:21.102Z,17.10
2023-02-24T01:42:51.122Z,17.10
2023-02-24T01:45:26.542Z,17.10
2023-02-24T01:47:58.790Z,17.10
2023-02-24T01:50:29.372Z,17.10
2023-02-24T01:53:04.192Z,17.10
2023-02-24T01:55:38.284Z,17.10
2023-02-24T01:58:12.936Z,17.10
2023-02-24T02:00:47.191Z,17.10
2023-02-24T02:03:25.364Z,17.00
2023-02-24T02:05:56.264Z,17.10
2023-02-24T02:08:27.286Z,17.00
2023-02-24T02:10:59.031Z,17.10
2023-02-24T02:13:30.081Z,17.00
2023-02-24T02:16:15.134Z,17.00
2023-02-24T02:18:57.643Z,17.00
2023-02-24T02:22:05.817Z,17.00
2023-02-24T02:24:54.252Z,17.00
2023-02-24T02:28:10.269Z,17.00
2023-02-24T02:31:23.527Z,17.00
2023-02-24T02:34:30.589Z,17.00
2023-02-24T02:37:08.695Z,17.00
2023-02-24T02:39:50.738Z,17.00
2023-02-24T02:42:30.204Z,17.00
2023-02-24T02:45:08.726Z,17.00
2023-02-24T02:47:44.138Z,17.00
2023-02-24T02:50:21.506Z,17.00
2023-02-24T02:52:55.219Z,17.00
2023-02-24T02:55:33.487Z,17.00
2023-02-24T02:58:04.793Z,17.00
2023-02-24T03:00:37.766Z,17.00
2023-02-24T03:03:13.653Z,17.00
2023-02-24T03:05:51.781Z,17.00
2023-02-24T03:08:26.692Z,17.00
2023-02-24T03:11:00.468Z,17.00
2023-02-24T03:13:36.906Z,17.00
2023-02-24T03:16:07.579Z,17.00
2023-02-24T03:18:44.748Z,17.00
2023-02-24T03:21:19.197Z,17.00
2023-02-24T03:23:51.956Z,17.00
2023-02-24T03:26:28.729Z,17.00
2023-02-24T03:29:07.319Z,17.00
2023-02-24T03:31:46.041Z,16.90
2023-02-24T03:34:20.929Z,17.00
2023-02-24T03:36:51.183Z,17.00
2023-02-24T03:39:19.985Z,17.00
2023-02-24T03:42:15.901Z,16.90
2023-02-24T03:44:45.561Z,16.90
2023-02-24T03:47:15.995Z,16.90
2023-02-24T03:49:45.439Z,16.90
2023-02-24T03:52:29.760Z,16.90
2023-02-24T03:55:19.153Z,16.90
2023-02-24T03:58:03.792Z,16.90
2023-02-24T04:00:44.796Z,16.90
2023-02-24T04:03:25.786Z,16.90
2023-02-24T04:06:12.456Z,16.90
2023-02-24T04:08:52.157Z,16.90
2023-02-24T04:11:29.352Z,16.90
2023-02-24T04:14:06.616Z,16.90
2023-02-24T04:16:43.377Z,16.90
2023-02-24T04:19:16.869Z,16.90
2023-02-24T04:21:49.661Z,16.90
2023-02-24T04:24:31.689Z,16.90
2023-02-24T04:27:03.435Z,16.90
2023-02-24T04:29:47.230Z,16.90
2023-02-24T04:32:24.132Z,16.90
2023-02-24T04:34:53.097Z,16.90
2023-02-24T04:37:23.245Z,16.90
2023-02-24T04:39:53.632Z,16.90
2023-02-24T04:42:29.081Z,16.90
2023-02-24T04:44:58.730Z,16.90
2023-02-24T04:47:28.965Z,16.90
2023-02-24T04:49:57.707Z,16.80
2023-02-24T04:52:26.401Z,16.80
2023-02-24T04:54:56.583Z,16.80
2023-02-24T04:57:25.827Z,16.80
2023-02-24T04:59:54.983Z,16.80
2023-02-24T05:02:23.784Z,16.80
2023-02-24T05:04:52.728Z,16.80
2023-02-24T05:07:22.658Z,16.80
2023-02-24T05:09:51.390Z,16.80
2023-02-24T05:12:21.425Z,16.70
2023-02-24T05:14:50.064Z,16.80
2023-02-24T05:17:18.920Z,16.80
2023-02-24T05:20:05.107Z,16.80
2023-02-24T05:22:33.823Z,16.70
2023-02-24T05:25:03.651Z,16.70
2023-02-24T05:27:37.462Z,16.70
2023-02-24T05:30:09.913Z,16.70
2023-02-24T05:32:39.174Z,16.70
2023-02-24T05:35:10.820Z,16.70
2023-02-24T05:37:42.664Z,16.70
2023-02-24T05:40:14.872Z,16.60
2023-02-24T05:42:45.384Z,16.60
2023-02-24T05:45:14.050Z,16.70
2023-02-24T05:47:46.514Z,16.60
2023-02-24T05:50:15.993Z,16.60
2023-02-24T05:52:45.935Z,16.60
2023-02-24T05:55:15.983Z,16.60
2023-02-24T05:57:46.314Z,16.60
2023-02-24T06:00:16.626Z,16.60
2023-02-24T06:02:49.676Z,16.60
2023-02-24T06:05:33.420Z,16.60
2023-02-24T06:08:06.351Z,16.60
2023-02-24T06:10:35.340Z,16.60
2023-02-24T06:13:06.948Z,16.60
2023-02-24T06:15:35.618Z,16.60
2023-02-24T06:18:04.439Z,16.60
2023-02-24T06:20:33.580Z,16.60
2023-02-24T06:23:04.476Z,16.60
2023-02-24T06:25:33.432Z,16.60
2023-02-24T06:28:02.191Z,16.60
2023-02-24T06:30:32.940Z,16.60
2023-02-24T06:33:01.953Z,16.60
2023-02-24T06:35:33.013Z,16.60
2023-02-24T06:38:01.644Z,16.60
2023-02-24T06:40:31.613Z,16.60
2023-02-24T06:43:00.329Z,16.60
2023-02-24T06:45:30.561Z,16.60
2023-02-24T06:48:00.811Z,16.60
2023-02-24T06:50:29.479Z,16.60
2023-02-24T06:53:00.932Z,16.50
2023-02-24T06:55:29.948Z,16.50
2023-02-24T06:58:04.725Z,16.50
2023-02-24T07:00:39.032Z,16.50
2023-02-24T07:03:17.154Z,16.50
2023-02-24T07:05:54.188Z,16.50
2023-02-24T07:08:25.257Z,16.50
2023-02-24T07:10:56.066Z,16.50
2023-02-24T07:13:26.022Z,16.50
2023-02-24T07:15:55.062Z,16.50
2023-02-24T07:18:26.736Z,16.60
2023-02-24T07:20:55.408Z,16.60
2023-02-24T07:23:24.060Z,16.50
2023-02-24T07:25:53.500Z,16.50
2023-02-24T07:28:22.941Z,16.60
2023-02-24T07:30:52.667Z,16.60
2023-02-24T07:33:23.253Z,16.60
2023-02-24T07:35:54.036Z,16.60
2023-02-24T07:38:23.096Z,16.60
2023-02-24T07:40:52.360Z,16.60
2023-02-24T07:43:21.394Z,16.60
2023-02-24T07:45:50.100Z,16.60
2023-02-24T07:48:18.775Z,16.60
2023-02-24T07:50:47.996Z,16.60
2023-02-24T07:53:19.106Z,16.60
2023-02-24T07:55:47.789Z,16.70
2023-02-24T07:58:18.416Z,16.60
2023-02-24T08:01:00.912Z,16.60
2023-02-24T08:03:30.545Z,16.60
2023-02-24T08:06:12.983Z,16.60
2023-02-24T08:08:59.014Z,16.70
2023-02-24T08:11:35.682Z,16.60
2023-02-24T08:14:10.952Z,16.60
2023-02-24T08:16:40.783Z,16.60
2023-02-24T08:19:13.347Z,16.70
2023-02-24T08:21:47.434Z,16.70
2023-02-24T08:24:20.132Z,16.70
2023-02-24T08:27:05.111Z,16.70
2023-02-24T08:29:40.357Z,16.60
2023-02-24T08:32:10.527Z,16.70
2023-02-24T08:34:40.393Z,16.70
2023-02-24T08:37:08.964Z,16.70
2023-02-24T08:39:38.981Z,16.70
2023-02-24T08:42:07.734Z,16.70
2023-02-24T08:44:37.350Z,16.70
2023-02-24T08:47:07.575Z,16.70
2023-02-24T08:49:36.211Z,16.70
2023-02-24T08:52:07.300Z,16.80
2023-02-24T08:54:48.046Z,16.80
2023-02-24T08:57:18.402Z,16.80
2023-02-24T08:59:51.078Z,16.80
2023-02-24T09:02:27.454Z,16.90
2023-02-24T09:04:59.495Z,16.90
2023-02-24T09:07:35.364Z,16.90
2023-02-24T09:10:05.837Z,17.00
2023-02-24T09:12:41.267Z,17.00
2023-02-24T09:15:15.473Z,17.00
2023-02-24T09:18:01.353Z,17.00
2023-02-24T09:20:47.243Z,17.10
2023-02-24T09:23:20.134Z,17.10
2023-02-24T09:25:54.426Z,17.10
2023-02-24T09:28:26.840Z,17.10
2023-02-24T09:30:58.781Z,17.20
2023-02-24T09:33:29.818Z,17.20
2023-02-24T09:36:09.929Z,17.20
2023-02-24T09:41:57.648Z,17.40
2023-02-24T09:44:34.350Z,17.40
2023-02-24T09:47:14.119Z,17.50
2023-02-24T09:49:56.398Z,17.50
2023-02-24T09:52:39.847Z,17.60
2023-02-24T09:55:26.096Z,17.70
2023-02-24T09:58:29.366Z,17.70
2023-02-24T10:01:33.637Z,17.80
2023-02-24T10:04:21.812Z,17.90
2023-02-24T10:06:52.623Z,17.90
2023-02-24T10:09:27.754Z,18.00
2023-02-24T10:12:04.531Z,18.00
2023-02-24T10:14:52.977Z,18.00
2023-02-24T10:17:40.149Z,18.10
2023-02-24T10:20:31.036Z,18.10
2023-02-24T10:23:09.735Z,18.10
2023-02-24T10:25:53.968Z,18.10
2023-02-24T10:28:36.028Z,18.10
2023-02-24T10:31:25.476Z,18.10
2023-02-24T10:34:00.925Z,18.00
2023-02-24T10:36:36.300Z,18.00
2023-02-24T10:39:17.023Z,18.00
2023-02-24T10:41:49.334Z,18.00
2023-02-24T10:44:26.088Z,18.00
2023-02-24T10:47:12.530Z,18.00
2023-02-24T10:49:57.266Z,17.90
2023-02-24T10:52:37.130Z,18.00
2023-02-24T10:55:28.428Z,17.90
2023-02-24T10:58:07.663Z,17.90
2023-02-24T11:01:01.128Z,17.90
2023-02-24T11:03:42.269Z,17.90
2023-02-24T11:06:47.909Z,17.90
2023-02-24T11:09:32.265Z,17.90
2023-02-24T11:12:24.856Z,17.90
2023-02-24T11:15:14.373Z,17.90
2023-02-24T11:17:50.948Z,17.90
2023-02-24T11:20:48.560Z,17.90
2023-02-24T11:23:23.666Z,17.90
2023-02-24T11:25:58.346Z,17.90
2023-02-24T11:28:59.712Z,17.90
2023-02-24T11:31:45.375Z,17.90
2023-02-24T11:34:24.902Z,17.90
2023-02-24T11:37:04.677Z,17.90
2023-02-24T11:39:53.136Z,17.90
2023-02-24T11:42:28.079Z,17.90
2023-02-24T11:45:04.115Z,17.90
2023-02-24T11:47:40.396Z,17.90
2023-02-24T11:50:30.694Z,17.90
2023-02-24T11:53:04.811Z,17.80
2023-02-24T11:55:39.491Z,17.80
2023-02-24T11:58:18.573Z,17.80
2023-02-24T12:00:56.137Z,17.80
2023-02-24T12:03:36.707Z,17.80
2023-02-24T12:06:17.418Z,17.80
2023-02-24T12:08:52.739Z,17.80
2023-02-24T12:11:35.644Z,17.80
2023-02-24T12:14:19.082Z,17.80
2023-02-24T12:16:54.276Z,17.80
2023-02-24T12:19:30.308Z,17.80
2023-02-24T12:22:06.024Z,17.80
2023-02-24T12:24:37.101Z,17.80
2023-02-24T12:27:21.256Z,17.80
2023-02-24T12:30:23.155Z,17.80
2023-02-24T12:33:08.531Z,17.70
2023-02-24T12:35:49.268Z,17.80
2023-02-24T12:38:35.855Z,17.70
2023-02-24T12:41:20.927Z,17.80
2023-02-24T12:44:01.400Z,17.70
2023-02-24T12:46:34.834Z,17.70
2023-02-24T12:49:27.541Z,17.70
2023-02-24T12:52:10.239Z,17.70
2023-02-24T12:54:48.633Z,17.70
2023-02-24T12:57:26.746Z,17.70
2023-02-24T12:59:58.252Z,17.70
2023-02-24T13:02:40.878Z,17.70
2023-02-24T13:05:20.844Z,17.70
2023-02-24T13:08:12.575Z,17.70
2023-02-24T13:10:48.691Z,17.70
2023-02-24T13:13:28.872Z,17.80
2023-02-24T13:16:01.258Z,17.80
2023-02-24T13:18:31.996Z,17.80
2023-02-24T13:21:10.719Z,17.80
2023-02-24T13:23:43.659Z,17.80
2023-02-24T13:26:12.419Z,17.80
2023-02-24T13:28:41.171Z,17.80
2023-02-24T13:31:14.030Z,17.80
2023-02-24T13:33:45.281Z,17.80
2023-02-24T13:36:21.627Z,17.80
2023-02-24T13:38:52.852Z,17.90
2023-02-24T13:41:38.322Z,17.90
2023-02-24T13:44:26.511Z,17.90
2023-02-24T13:47:35.215Z,17.90
2023-02-24T13:50:25.496Z,17.90
2023-02-24T13:53:26.731Z,18.00
2023-02-24T13:56:12.323Z,17.90
2023-02-24T13:59:07.220Z,18.00
2023-02-24T14:01:50.790Z,18.00
2023-02-24T14:04:27.846Z,18.00
2023-02-24T14:07:02.562Z,18.00
2023-02-24T14:09:34.848Z,18.00
2023-02-24T14:12:14.315Z,18.00
2023-02-24T14:14:44.842Z,18.00
2023-02-24T14:17:25.362Z,18.00
2023-02-24T14:19:56.962Z,18.00
2023-02-24T14:22:25.920Z,18.00
2023-02-24T14:25:03.641Z,18.00
2023-02-24T14:27:32.997Z,18.00
2023-02-24T14:30:01.756Z,18.00
2023-02-24T14:32:30.679Z,18.00
2023-02-24T14:35:01.048Z,18.00
2023-02-24T14:37:33.039Z,17.90
2023-02-24T14:40:05.927Z,17.90
2023-02-24T14:42:36.325Z,17.90
2023-02-24T14:45:19.007Z,17.90
2023-02-24T14:47:47.729Z,17.90
2023-02-24T14:50:21.359Z,17.90
2023-02-24T14:52:53.341Z,17.90
2023-02-24T14:55:24.665Z,17.80
2023-02-24T14:58:00.222Z,17.90
2023-02-24T15:00:33.882Z,17.80
2023-02-24T15:03:08.820Z,17.80
2023-02-24T15:05:44.641Z,17.80
2023-02-24T15:08:31.170Z,17.80
2023-02-24T15:11:00.287Z,17.80
2023-02-24T15:13:37.306Z,17.80
2023-02-24T15:16:14.463Z,17.80
2023-02-24T15:18:43.965Z,17.80
2023-02-24T15:21:23.643Z,17.80
2023-02-24T15:24:01.235Z,17.80
2023-02-24T15:26:32.943Z,17.80
2023-02-24T15:29:05.222Z,17.80
2023-02-24T15:31:33.938Z,17.70
2023-02-24T15:34:03.817Z,17.70
2023-02-24T15:36:37.285Z,17.70
2023-02-24T15:39:10.756Z,17.70
2023-02-24T15:41:42.161Z,17.70
2023-02-24T15:44:27.528Z,17.70
2023-02-24T15:46:57.266Z,17.70
2023-02-24T15:49:26.104Z,17.70
2023-02-24T15:51:59.710Z,17.70
2023-02-24T15:54:33.480Z,17.70
2023-02-24T15:57:05.361Z,17.60
2023-02-24T15:59:34.211Z,17.60
2023-02-24T16:02:03.981Z,17.60
2023-02-24T16:04:32.753Z,17.60
2023-02-24T16:07:02.930Z,17.60
2023-02-24T16:09:36.404Z,17.50
2023-02-24T16:12:09.643Z,17.60
2023-02-24T16:14:39.195Z,17.50
2023-02-24T16:17:20.364Z,17.60
2023-02-24T16:19:49.004Z,17.50
2023-02-24T16:22:19.181Z,17.50
2023-02-24T16:24:47.801Z,17.50
2023-02-24T16:27:18.510Z,17.50
2023-02-24T16:29:49.670Z,17.50
2023-02-24T16:32:18.590Z,17.50
2023-02-24T16:34:47.331Z,17.50
2023-02-24T16:37:22.943Z,17.40
2023-02-24T16:39:51.883Z,17.40
2023-02-24T16:42:21.919Z,17.40
2023-02-24T16:44:51.732Z,17.40
2023-02-24T16:47:24.376Z,17.40
2023-02-24T16:49:57.711Z,17.40
2023-02-24T16:52:28.639Z,17.40
2023-02-24T16:54:57.284Z,17.40
2023-02-24T16:57:25.982Z,17.40
2023-02-24T16:59:54.613Z,17.40
2023-02-24T17:02:26.938Z,17.30
2023-02-24T17:04:55.513Z,17.30
2023-02-24T17:07:24.241Z,17.30
2023-02-24T17:09:54.263Z,17.30
2023-02-24T17:12:23.189Z,17.30
2023-02-24T17:14:52.217Z,17.30
2023-02-24T17:17:21.629Z,17.20
2023-02-24T17:19:50.280Z,17.20
2023-02-24T17:22:19.021Z,17.20
2023-02-24T17:24:47.617Z,17.20
2023-02-24T17:27:17.667Z,17.30
2023-02-24T17:29:46.287Z,17.20
2023-02-24T17:32:15.193Z,17.20
2023-02-24T17:34:43.922Z,17.20
2023-02-24T17:37:12.555Z,17.20
2023-02-24T17:39:41.213Z,17.20
2023-02-24T17:42:10.147Z,17.20
2023-02-24T17:44:40.287Z,17.10
2023-02-24T17:47:09.109Z,17.10
2023-02-24T17:49:37.822Z,17.20
2023-02-24T17:52:06.728Z,17.10
2023-02-24T17:54:35.474Z,17.10
2023-02-24T17:57:04.076Z,17.10
2023-02-24T17:59:32.778Z,17.10
2023-02-24T18:02:03.348Z,17.10
2023-02-24T18:04:32.557Z,17.00
2023-02-24T18:07:01.130Z,17.10
2023-02-24T18:09:29.868Z,17.00
2023-02-24T18:11:58.528Z,17.00
2023-02-24T18:14:27.662Z,17.00
2023-02-24T18:16:56.282Z,17.00
2023-02-24T18:19:26.312Z,17.00
2023-02-24T18:21:54.942Z,17.00
2023-02-24T18:24:23.642Z,17.00
2023-02-24T18:26:52.214Z,17.00
2023-02-24T18:29:20.899Z,17.00
2023-02-24T18:31:49.786Z,16.90
2023-02-24T18:34:18.643Z,16.90
2023-02-24T18:36:48.674Z,16.90
2023-02-24T18:39:17.303Z,16.90
2023-02-24T18:41:46.021Z,16.90
2023-02-24T18:44:14.630Z,16.90
2023-02-24T18:46:43.343Z,16.90
2023-02-24T18:49:12.204Z,16.80
2023-02-24T18:51:40.973Z,16.80
2023-02-24T18:54:12.615Z,16.80
2023-02-24T18:56:41.293Z,16.80
2023-02-24T18:59:10.120Z,16.80
2023-02-24T19:01:40.360Z,16.70
2023-02-24T19:04:10.584Z,16.70
2023-02-24T19:06:41.587Z,16.70
2023-02-24T19:09:12.777Z,16.70
2023-02-24T19:11:43.267Z,16.70
2023-02-24T19:14:14.019Z,16.60
2023-02-24T19:16:43.292Z,16.60
2023-02-24T19:19:14.790Z,16.60
2023-02-24T19:21:45.506Z,16.60
2023-02-24T19:24:17.051Z,16.60
2023-02-24T19:26:47.572Z,16.60
2023-02-24T19:29:17.184Z,16.50
2023-02-24T19:31:46.742Z,16.50
2023-02-24T19:34:16.361Z,16.50
2023-02-24T19:36:45.011Z,16.50
2023-02-24T19:39:19.386Z,16.50
2023-02-24T19:41:49.671Z,16.50
2023-02-24T19:44:18.641Z,16.50
2023-02-24T19:46:47.386Z,16.40
2023-02-24T19:49:16.029Z,16.40
2023-02-24T19:51:46.628Z,16.40
2023-02-24T19:54:18.434Z,16.40
2023-02-24T19:56:47.054Z,16.40
2023-02-24T19:59:15.719Z,16.30
2023-02-24T20:01:44.916Z,16.30
2023-02-24T20:04:13.991Z,16.30
2023-02-24T20:06:44.055Z,16.30
2023-02-24T20:09:15.698Z,16.30
2023-02-24T20:11:46.929Z,16.30
2023-02-24T20:14:17.900Z,16.30
2023-02-24T20:16:47.906Z,16.30
2023-02-24T20:19:18.072Z,16.20
2023-02-24T20:21:47.474Z,16.20
2023-02-24T20:24:18.331Z,16.20
2023-02-24T20:26:50.076Z,16.20
2023-02-24T20:29:21.811Z,16.20
2023-02-24T20:31:51.153Z,16.20
2023-02-24T20:34:20.033Z,16.20
2023-02-24T20:36:48.682Z,16.20
2023-02-24T20:39:17.330Z,16.20
2023-02-24T20:41:47.351Z,16.20
2023-02-24T20:44:15.988Z,16.20
2023-02-24T20:46:44.642Z,16.20
2023-02-24T20:49:14.983Z,16.20
2023-02-24T20:51:44.841Z,16.20
2023-02-24T20:54:15.145Z,16.20
2023-02-24T20:56:45.795Z,16.10
2023-02-24T20:59:18.235Z,16.10
2023-02-24T21:01:48.597Z,16.10
2023-02-24T21:04:20.195Z,16.20
2023-02-24T21:06:51.497Z,16.10
2023-02-24T21:09:20.134Z,16.10
2023-02-24T21:11:48.816Z,16.10
2023-02-24T21:14:18.968Z,16.10
2023-02-24T21:16:48.052Z,16.10
2023-02-24T21:19:17.898Z,16.10
2023-02-24T21:21:46.775Z,16.10
2023-02-24T21:24:15.392Z,16.10
2023-02-24T21:26:44.078Z,16.10
2023-02-24T21:29:12.832Z,16.10
2023-02-24T21:31:43.225Z,16.10
2023-02-24T21:34:12.249Z,16.10
2023-02-24T21:36:40.948Z,16.00
2023-02-24T21:39:14.088Z,16.00
2023-02-24T21:41:43.078Z,16.00
2023-02-24T21:44:14.316Z,16.00
2023-02-24T21:46:45.586Z,16.00
2023-02-24T21:49:14.855Z,16.00
2023-02-24T21:51:43.733Z,16.00
2023-02-24T21:54:14.393Z,16.00
2023-02-24T21:56:43.355Z,16.00
2023-02-24T21:59:12.319Z,16.00
2023-02-24T22:01:44.617Z,16.00
2023-02-24T22:04:16.086Z,16.00
2023-02-24T22:06:45.760Z,16.00
2023-02-24T22:09:19.429Z,16.00
2023-02-24T22:11:50.355Z,16.00
2023-02-24T22:14:19.464Z,15.90
2023-02-24T22:16:49.662Z,15.90
2023-02-24T22:19:19.534Z,15.90
2023-02-24T22:21:48.187Z,15.90
2023-02-24T22:24:18.690Z,15.90
2023-02-24T22:26:47.320Z,15.90
2023-02-24T22:29:16.086Z,15.90
2023-02-24T22:31:47.613Z,15.90
2023-02-24T22:34:19.124Z,15.90
2023-02-24T22:36:47.698Z,15.90
2023-02-24T22:39:17.071Z,15.90
2023-02-24T22:41:47.504Z,15.90
2023-02-24T22:44:19.334Z,15.90
2023-02-24T22:46:48.998Z,15.90
2023-02-24T22:49:19.172Z,15.90
2023-02-24T22:51:47.790Z,15.90
2023-02-24T22:54:16.660Z,15.90
2023-02-24T22:56:45.361Z,15.90
2023-02-24T22:59:15.948Z,15.90
2023-02-24T23:01:44.893Z,15.90
2023-02-24T23:04:18.887Z,15.90
2023-02-24T23:06:48.367Z,15.90
2023-02-24T23:09:19.947Z,15.90
2023-02-24T23:11:48.999Z,15.90
2023-02-24T23:14:20.700Z,15.90
2023-02-24T23:16:55.658Z,15.90
2023-02-24T23:19:25.987Z,15.90
2023-02-24T23:21:56.482Z,15.80
2023-02-24T23:24:25.778Z,15.80
2023-02-24T23:26:57.711Z,15.80
2023-02-24T23:29:27.979Z,15.80
2023-02-24T23:31:57.387Z,15.80
2023-02-24T23:34:27.563Z,15.80
2023-02-24T23:36:56.201Z,15.80
2023-02-24T23:39:24.862Z,15.80
2023-02-24T23:41:57.616Z,15.80
2023-02-24T23:44:26.807Z,15.80
2023-02-24T23:46:58.209Z,15.80
2023-02-24T23:49:39.249Z,15.80
2023-02-24T23:52:16.190Z,15.80
2023-02-24T23:54:44.895Z,15.80
2023-02-24T23:57:13.502Z,15.80
2023-02-24T23:59:42.348Z,15.80
